createdAt,value
2023-12-01T03:13:53.375Z,9.762798
2023-12-01T03:15:05.581Z,9.762714
2023-12-01T03:15:54.416Z,9.762869
2023-12-01T03:16:53.433Z,9.762990
2023-12-01T03:17:53.376Z,9.762990
2023-12-01T03:18:53.374Z,9.762990
2023-12-01T03:19:53.305Z,9.762990
2023-12-01T03:20:53.323Z,9.762990
2023-12-01T03:21:53.303Z,9.762990
2023-12-01T03:22:53.324Z,9.762990
2023-12-01T03:23:53.302Z,9.762990
2023-12-01T03:24:53.291Z,9.762990
2023-12-01T03:25:53.277Z,9.762990
2023-12-01T03:26:53.258Z,9.762990
2023-12-01T03:27:53.293Z,9.762748
2023-12-01T03:28:53.252Z,9.762728
2023-12-01T03:29:53.250Z,9.761452
2023-12-01T03:30:53.268Z,9.759114
2023-12-01T03:31:53.330Z,9.759114
2023-12-01T03:32:53.267Z,9.759114
2023-12-01T03:33:53.195Z,9.759114
2023-12-01T03:34:53.207Z,9.759114
2023-12-01T03:35:53.177Z,9.759114
2023-12-01T03:36:53.188Z,9.759114
2023-12-01T03:37:53.154Z,9.759114
2023-12-01T03:38:53.145Z,9.759114
2023-12-01T03:39:53.120Z,9.759114
2023-12-01T03:40:53.113Z,9.762869
2023-12-01T03:41:53.138Z,9.762731
2023-12-01T03:42:53.447Z,9.762287
2023-12-01T03:43:53.068Z,9.762424
2023-12-01T03:44:53.087Z,9.762880
2023-12-01T03:45:53.128Z,9.762866
2023-12-01T03:46:53.149Z,9.762582
2023-12-01T03:47:53.416Z,9.762513
2023-12-01T03:48:53.050Z,9.762517
2023-12-01T03:49:53.046Z,9.762809
2023-12-01T03:50:53.009Z,9.762912
2023-12-01T03:51:53.067Z,9.763008
2023-12-01T03:52:53.085Z,9.763096
2023-12-01T03:53:52.987Z,9.763480
2023-12-01T03:54:52.978Z,9.762872
2023-12-01T03:55:52.989Z,9.762784
2023-12-01T03:56:52.974Z,9.762364
2023-12-01T03:57:52.996Z,9.762747
2023-12-01T03:58:52.957Z,9.762895
2023-12-01T03:59:52.948Z,9.762873
2023-12-01T04:00:52.989Z,9.762796
2023-12-01T04:01:52.942Z,9.762743
2023-12-01T04:02:52.920Z,9.762686
2023-12-01T04:03:52.966Z,9.762844
2023-12-01T04:04:52.950Z,9.762844
2023-12-01T04:05:52.892Z,9.762812
2023-12-01T04:06:52.904Z,9.762760
2023-12-01T04:07:54.972Z,9.762816
2023-12-01T04:08:52.861Z,9.762691
2023-12-01T04:09:52.846Z,9.762699
2023-12-01T04:10:52.831Z,9.762805
2023-12-01T04:11:52.818Z,9.762628
2023-12-01T04:12:52.851Z,9.762784
2023-12-01T04:13:52.819Z,9.762636
2023-12-01T04:14:52.785Z,9.762704
2023-12-01T04:15:52.827Z,9.762688
2023-12-01T04:16:52.772Z,9.762630
2023-12-01T04:17:53.844Z,9.762890
2023-12-01T04:18:52.783Z,9.762873
2023-12-01T04:19:52.729Z,9.762744
2023-12-01T04:20:52.708Z,9.762772
2023-12-01T04:21:52.781Z,9.762819
2023-12-01T04:22:52.716Z,9.762873
2023-12-01T04:23:52.698Z,9.762791
2023-12-01T04:24:52.691Z,9.762762
2023-12-01T04:25:52.676Z,9.762795
2023-12-01T04:26:52.712Z,9.762790
2023-12-01T04:27:52.689Z,9.762719
2023-12-01T04:28:52.633Z,9.762630
2023-12-01T04:29:52.651Z,9.762677
2023-12-01T04:30:52.684Z,9.762679
2023-12-01T04:32:00.316Z,9.762649
2023-12-01T04:32:55.871Z,9.762846
2023-12-01T04:33:52.615Z,9.762716
2023-12-01T04:34:52.709Z,9.762868
2023-12-01T04:35:52.613Z,9.762842
2023-12-01T04:36:52.610Z,9.762658
2023-12-01T04:37:52.658Z,9.762676
2023-12-01T04:38:52.566Z,9.762731
2023-12-01T04:39:52.591Z,9.762728
2023-12-01T04:40:52.548Z,9.762698
2023-12-01T04:41:52.563Z,9.762769
2023-12-01T04:42:52.601Z,9.762787
2023-12-01T04:43:52.516Z,9.762770
2023-12-01T04:44:52.969Z,9.762691
2023-12-01T04:45:52.562Z,9.762720
2023-12-01T04:46:52.577Z,9.762728
2023-12-01T04:47:52.629Z,9.762654
2023-12-01T04:48:52.509Z,9.762769
2023-12-01T04:49:52.504Z,9.762744
2023-12-01T04:50:52.440Z,9.762893
2023-12-01T04:51:52.466Z,9.762862
2023-12-01T04:52:52.441Z,9.762815
2023-12-01T04:53:52.430Z,9.762769
2023-12-01T04:54:52.429Z,9.762698
2023-12-01T04:55:52.398Z,9.762626
2023-12-01T04:56:52.379Z,9.762668
2023-12-01T04:57:52.401Z,9.762762
2023-12-01T04:58:52.389Z,9.762740
2023-12-01T04:59:52.346Z,9.762737
2023-12-01T05:00:52.417Z,9.762832
2023-12-01T05:01:52.361Z,9.762776
2023-12-01T05:02:52.350Z,9.762766
2023-12-01T05:03:54.600Z,9.762733
2023-12-01T05:04:52.364Z,9.762626
2023-12-01T05:05:52.306Z,9.762686
2023-12-01T05:06:52.331Z,9.762631
2023-12-01T05:07:52.248Z,9.762412
2023-12-01T05:08:52.266Z,9.762371
2023-12-01T05:09:53.246Z,9.762451
2023-12-01T05:10:52.256Z,9.762547
2023-12-01T05:11:52.219Z,9.762665
2023-12-01T05:12:52.318Z,9.762622
2023-12-01T05:13:52.207Z,9.762752
2023-12-01T05:14:52.210Z,9.763232
2023-12-01T05:15:52.237Z,9.762774
2023-12-01T05:16:52.210Z,9.762704
2023-12-01T05:17:52.175Z,9.762564
2023-12-01T05:18:52.182Z,9.762405
2023-12-01T05:19:52.184Z,9.762349
2023-12-01T05:20:52.150Z,9.762349
2023-12-01T05:21:52.138Z,9.762349
2023-12-01T05:22:52.141Z,9.762349
2023-12-01T05:23:52.107Z,9.762275
2023-12-01T05:24:52.139Z,9.762325
2023-12-01T05:25:52.279Z,9.762325
2023-12-01T05:26:54.529Z,9.762813
2023-12-01T05:27:53.171Z,9.762883
2023-12-01T05:28:52.748Z,9.762564
2023-12-01T05:29:52.062Z,9.762708
2023-12-01T05:30:52.076Z,9.763087
2023-12-01T05:31:52.092Z,9.763087
2023-12-01T05:32:52.054Z,9.761974
2023-12-01T05:34:01.766Z,9.763478
2023-12-01T05:34:52.999Z,9.765739
2023-12-01T05:35:54.779Z,9.770687
2023-12-01T05:37:24.303Z,9.781222
2023-12-01T08:07:12.615Z,9.762545
2023-12-01T08:08:12.761Z,9.762545
2023-12-01T08:09:11.723Z,9.762958
2023-12-01T08:10:11.722Z,9.762606
2023-12-01T08:11:11.720Z,9.763302
2023-12-01T08:12:11.790Z,9.763026
2023-12-01T08:13:11.771Z,9.763026
2023-12-01T08:14:11.686Z,9.763026
2023-12-01T08:15:11.680Z,9.763026
2023-12-01T08:16:11.800Z,9.763026
2023-12-01T08:17:11.716Z,9.763026
2023-12-01T08:18:11.687Z,9.763026
2023-12-01T08:19:11.631Z,9.763026
2023-12-01T08:20:11.641Z,9.763026
2023-12-01T08:21:12.568Z,9.763145
2023-12-01T08:22:11.577Z,9.763217
2023-12-01T08:23:11.565Z,9.763929
2023-12-01T08:24:11.517Z,9.763893
2023-12-01T08:25:11.601Z,9.763893
2023-12-01T08:26:11.553Z,9.763893
2023-12-01T08:27:12.030Z,9.763893
2023-12-01T08:28:11.525Z,9.763893
2023-12-01T08:29:11.472Z,9.763893
2023-12-01T08:30:18.233Z,9.763893
2023-12-01T08:31:12.463Z,9.763893
2023-12-01T08:32:11.487Z,9.763893
2023-12-01T08:33:11.424Z,9.763893
2023-12-01T08:34:22.022Z,9.763893
2023-12-01T08:35:12.383Z,9.763893
2023-12-01T08:36:11.413Z,9.763893
2023-12-01T08:37:11.377Z,9.763893
2023-12-01T08:38:12.370Z,9.763893
2023-12-01T08:39:11.450Z,9.763893
2023-12-01T08:40:11.400Z,9.763893
2023-12-01T08:41:11.349Z,9.763893
2023-12-01T08:42:11.349Z,9.763893
2023-12-01T08:43:11.327Z,9.763893
2023-12-01T08:44:11.322Z,9.763893
2023-12-01T08:45:11.381Z,9.763893
2023-12-01T08:46:11.361Z,9.763893
2023-12-01T08:47:11.285Z,9.763893
2023-12-01T08:48:11.309Z,9.763893
2023-12-01T08:49:11.268Z,9.763893
2023-12-01T08:50:11.242Z,9.763893
2023-12-01T08:51:11.266Z,9.763893
2023-12-01T08:52:11.215Z,9.763893
2023-12-01T08:53:11.219Z,9.763893
2023-12-01T08:54:11.229Z,9.763893
2023-12-01T08:55:11.185Z,9.763893
2023-12-01T08:56:11.311Z,9.763893
2023-12-01T08:57:11.278Z,9.763893
2023-12-01T08:58:11.179Z,9.763893
2023-12-01T08:59:11.240Z,9.763893
2023-12-01T09:00:11.708Z,9.763893
2023-12-01T09:01:11.158Z,9.763893
2023-12-01T09:02:12.836Z,9.763893
2023-12-01T09:03:11.186Z,9.763893
2023-12-01T09:04:11.159Z,9.763893
2023-12-01T09:05:11.132Z,9.763893
2023-12-01T09:06:11.165Z,9.763893
2023-12-01T09:07:11.137Z,9.763893
2023-12-01T09:08:11.109Z,9.763893
2023-12-01T09:09:11.136Z,9.763893
2023-12-01T09:10:11.065Z,9.763893
2023-12-01T09:11:11.117Z,9.763893
2023-12-01T09:12:11.181Z,9.763893
2023-12-01T09:13:11.139Z,9.763893
2023-12-01T09:14:11.015Z,9.763893
2023-12-01T09:15:11.272Z,9.763893
2023-12-01T09:16:12.302Z,9.763893
2023-12-01T09:17:11.014Z,9.763893
2023-12-01T09:18:11.046Z,9.763893
2023-12-01T09:19:11.027Z,9.763893
2023-12-01T09:20:10.938Z,9.763893
2023-12-01T09:21:10.983Z,9.763893
2023-12-01T09:22:10.929Z,9.763893
2023-12-01T09:23:10.908Z,9.763893
2023-12-01T09:24:10.942Z,9.763893
2023-12-01T09:25:10.912Z,9.763893
2023-12-01T09:26:10.896Z,9.763893
2023-12-01T09:27:10.917Z,9.763893
2023-12-01T09:28:10.907Z,9.763893
2023-12-01T09:29:10.884Z,9.763893
2023-12-01T09:30:11.043Z,9.763893
2023-12-01T09:31:10.877Z,9.763893
2023-12-01T09:32:10.824Z,9.763893
2023-12-01T09:33:10.940Z,9.763893
2023-12-01T09:34:10.886Z,9.763893
2023-12-01T09:35:10.857Z,9.763893
2023-12-01T09:36:10.839Z,9.763893
2023-12-01T09:37:10.819Z,9.763893
2023-12-01T09:38:10.803Z,9.763893
2023-12-01T09:39:10.899Z,9.763893
2023-12-01T09:40:10.811Z,9.763893
2023-12-01T09:41:10.782Z,9.763893
2023-12-01T09:42:10.830Z,9.763893
2023-12-01T09:43:10.720Z,9.763893
2023-12-01T09:44:13.943Z,9.763893
2023-12-01T09:45:11.769Z,9.763893
2023-12-01T09:46:11.845Z,9.763893
2023-12-01T09:47:10.734Z,9.763893
2023-12-01T09:48:10.873Z,9.763893
2023-12-01T09:49:10.775Z,9.763893
2023-12-01T09:50:10.666Z,9.763893
2023-12-01T09:51:10.738Z,9.763893
2023-12-01T09:52:10.715Z,9.763893
2023-12-01T09:53:10.658Z,9.763893
2023-12-01T09:54:10.765Z,9.763893
2023-12-01T09:55:11.659Z,9.763893
2023-12-01T09:56:10.591Z,9.763893
2023-12-01T09:57:11.475Z,9.763893
2023-12-01T09:58:10.592Z,9.763893
2023-12-01T09:59:10.601Z,9.763893
2023-12-01T10:00:10.594Z,9.763893
2023-12-01T10:01:10.548Z,9.763893
2023-12-01T10:02:10.625Z,9.763893
2023-12-01T10:03:10.676Z,9.763893
2023-12-01T10:04:10.659Z,9.763893
2023-12-01T10:05:10.571Z,9.763893
2023-12-01T10:06:10.501Z,9.763893
2023-12-01T10:07:10.501Z,9.763893
2023-12-01T10:08:10.460Z,9.763893
2023-12-01T10:09:10.556Z,9.763893
2023-12-01T10:10:10.471Z,9.763893
2023-12-01T10:11:10.436Z,9.763893
2023-12-01T10:12:10.545Z,9.763893
2023-12-01T10:13:11.420Z,9.763893
2023-12-01T10:14:10.418Z,9.763893
2023-12-01T10:15:10.514Z,9.763893
2023-12-01T10:16:10.405Z,9.763893
2023-12-01T10:17:10.372Z,9.763893
2023-12-01T10:18:14.314Z,9.763893
2023-12-01T10:19:13.033Z,9.763893
2023-12-01T10:20:10.450Z,9.763893
2023-12-01T10:21:10.395Z,9.763893
2023-12-01T10:22:10.363Z,9.763893
2023-12-01T10:23:10.410Z,9.763893
2023-12-01T10:24:10.408Z,9.763893
2023-12-01T10:25:10.287Z,9.763893
2023-12-01T10:26:10.414Z,9.763893
2023-12-01T10:27:10.494Z,9.763893
2023-12-01T10:28:10.311Z,9.763893
2023-12-01T10:29:10.360Z,9.763893
2023-12-01T10:30:10.417Z,9.763893
2023-12-01T10:31:10.326Z,9.763893
2023-12-01T10:32:10.346Z,9.763893
2023-12-01T10:33:10.324Z,9.763893
2023-12-01T10:34:10.306Z,9.763893
2023-12-01T10:35:10.323Z,9.763893
2023-12-01T10:36:10.462Z,9.763893
2023-12-01T10:37:10.180Z,9.763893
2023-12-01T10:38:10.284Z,9.763893
2023-12-01T10:39:10.339Z,9.763893
2023-12-01T10:40:10.183Z,9.763893
2023-12-01T10:41:10.195Z,9.763893
2023-12-01T10:42:10.254Z,9.763893
2023-12-01T10:43:10.154Z,9.763893
2023-12-01T10:44:10.123Z,9.763893
2023-12-01T10:45:10.128Z,9.763893
2023-12-01T10:46:10.178Z,9.763893
2023-12-01T10:47:11.974Z,9.763893
2023-12-01T10:48:10.226Z,9.763893
2023-12-01T10:49:10.086Z,9.763893
2023-12-01T10:50:10.073Z,9.763893
2023-12-01T10:51:10.116Z,9.763893
2023-12-01T10:52:10.137Z,9.763893
2023-12-01T10:53:10.027Z,9.763893
2023-12-01T10:54:10.046Z,9.763893
2023-12-01T10:55:09.992Z,9.763893
2023-12-01T10:56:10.036Z,9.763893
2023-12-01T10:57:10.145Z,9.763893
2023-12-01T10:58:09.968Z,9.763893
2023-12-01T10:59:09.941Z,9.763893
2023-12-01T11:00:09.997Z,9.763893
2023-12-01T11:01:09.999Z,9.763893
2023-12-01T11:02:09.952Z,9.763893
2023-12-01T11:03:09.984Z,9.763893
2023-12-01T11:04:10.001Z,9.763893
2023-12-01T11:05:09.857Z,9.763893
2023-12-01T11:06:10.883Z,9.763893
2023-12-01T11:07:09.818Z,9.763893
2023-12-01T11:08:09.846Z,9.763893
2023-12-01T11:09:09.980Z,9.763893
2023-12-01T11:10:41.640Z,9.763893
2023-12-01T11:11:58.186Z,9.763893
2023-12-01T11:12:37.027Z,9.763893
2023-12-01T11:13:09.903Z,9.763893
2023-12-01T11:14:09.839Z,9.763893
2023-12-01T11:15:09.770Z,9.763893
2023-12-01T11:16:09.776Z,9.763893
2023-12-01T11:17:09.736Z,9.763893
2023-12-01T11:18:09.970Z,9.763893
2023-12-01T11:19:09.898Z,9.763893
2023-12-01T11:20:09.683Z,9.763893
2023-12-01T11:21:09.685Z,9.763893
2023-12-01T11:22:09.646Z,9.763893
2023-12-01T11:23:09.647Z,9.763893
2023-12-01T11:24:09.679Z,9.763893
2023-12-01T11:25:09.615Z,9.763893
2023-12-01T11:26:09.646Z,9.763893
2023-12-01T11:27:09.614Z,9.763893
2023-12-01T11:28:09.596Z,9.763893
2023-12-01T11:29:10.654Z,9.763893
2023-12-01T11:30:09.705Z,9.763893
2023-12-01T11:31:09.804Z,9.763893
2023-12-01T11:32:09.639Z,9.763893
2023-12-01T11:33:09.730Z,9.763893
2023-12-01T11:34:09.644Z,9.763893
2023-12-01T11:35:09.617Z,9.763893
2023-12-01T11:36:09.532Z,9.763893
2023-12-01T11:37:09.542Z,9.763893
2023-12-01T11:38:09.497Z,9.763893
2023-12-01T11:39:09.551Z,9.763893
2023-12-01T11:40:09.466Z,9.763893
2023-12-01T11:41:20.629Z,9.763893
2023-12-01T11:42:09.635Z,9.763893
2023-12-01T11:43:15.425Z,9.763893
2023-12-01T11:44:11.552Z,9.763893
2023-12-01T11:45:09.634Z,9.763893
2023-12-01T11:46:09.668Z,9.763893
2023-12-01T11:47:09.613Z,9.763893
2023-12-01T11:48:09.752Z,9.763893
2023-12-01T11:49:09.616Z,9.763893
2023-12-01T11:50:09.460Z,9.763893
2023-12-01T11:51:09.442Z,9.763893
2023-12-01T11:52:09.418Z,9.763893
2023-12-01T11:53:09.403Z,9.763893
2023-12-01T11:54:09.440Z,9.763893
2023-12-01T11:55:09.427Z,9.763893
2023-12-01T11:56:09.417Z,9.763893
2023-12-01T11:57:10.561Z,9.763893
2023-12-01T11:58:31.385Z,9.763893
2023-12-01T11:59:10.778Z,9.763893
2023-12-01T12:00:09.428Z,9.763893
2023-12-01T12:01:09.471Z,9.763893
2023-12-01T12:02:09.596Z,9.763893
2023-12-01T12:03:09.390Z,9.763893
2023-12-01T12:04:09.453Z,9.763893
2023-12-01T12:05:09.478Z,9.763893
2023-12-01T12:06:09.351Z,9.763893
2023-12-01T12:07:09.280Z,9.763893
2023-12-01T12:08:09.318Z,9.763893
2023-12-01T12:09:09.352Z,9.763893
2023-12-01T12:10:09.398Z,9.763893
2023-12-01T12:11:09.220Z,9.763893
2023-12-01T12:12:09.290Z,9.763893
2023-12-01T12:13:09.208Z,9.763893
2023-12-01T12:14:09.211Z,9.763893
2023-12-01T12:15:09.206Z,9.763893
2023-12-01T12:16:09.215Z,9.763893
2023-12-01T12:17:09.237Z,9.763893
2023-12-01T12:18:09.307Z,9.763893
2023-12-01T12:19:09.242Z,9.763893
2023-12-01T12:20:15.077Z,9.763893
2023-12-01T12:21:11.288Z,9.763893
2023-12-01T12:22:09.087Z,9.763893
2023-12-01T12:23:09.076Z,9.763893
2023-12-01T12:24:09.142Z,9.763893
2023-12-01T12:25:09.199Z,9.763893
2023-12-01T12:26:09.043Z,9.763893
2023-12-01T12:27:09.118Z,9.763893
2023-12-01T12:28:09.062Z,9.763893
2023-12-01T12:29:09.148Z,9.763893
2023-12-01T12:30:09.138Z,9.763893
2023-12-01T12:31:09.094Z,9.763893
2023-12-01T12:32:13.687Z,9.763893
2023-12-01T12:33:09.094Z,9.763893
2023-12-01T12:34:09.123Z,9.763893
2023-12-01T12:35:09.004Z,9.763893
2023-12-01T12:36:09.025Z,9.763893
2023-12-01T12:37:08.941Z,9.763893
2023-12-01T12:38:08.933Z,9.763893
2023-12-01T12:39:09.042Z,9.763893
2023-12-01T12:40:08.903Z,9.763893
2023-12-01T12:41:08.915Z,9.763893
2023-12-01T12:42:09.082Z,9.763893
2023-12-01T12:43:08.878Z,9.763893
2023-12-01T12:44:08.933Z,9.763893
2023-12-01T12:45:08.867Z,9.763893
2023-12-01T12:46:08.873Z,9.763893
2023-12-01T12:47:08.801Z,9.763893
2023-12-01T12:48:08.893Z,9.763893
2023-12-01T12:49:08.844Z,9.763893
2023-12-01T12:50:08.806Z,9.763893
2023-12-01T12:51:08.824Z,9.763893
2023-12-01T12:52:08.794Z,9.763893
2023-12-01T12:53:10.248Z,9.763893
2023-12-01T12:54:08.830Z,9.763893
2023-12-01T12:55:08.747Z,9.763893
2023-12-01T12:56:08.751Z,9.763893
2023-12-01T12:57:08.793Z,9.763893
2023-12-01T12:58:08.765Z,9.763893
2023-12-01T12:59:08.793Z,9.763893
2023-12-01T13:00:08.765Z,9.763893
2023-12-01T13:01:08.738Z,9.763893
2023-12-01T13:02:08.830Z,9.763893
2023-12-01T13:03:08.769Z,9.763893
2023-12-01T13:04:08.774Z,9.763893
2023-12-01T13:05:08.696Z,9.763893
2023-12-01T13:06:08.788Z,9.763893
2023-12-01T13:07:08.676Z,9.763893
2023-12-01T13:08:08.666Z,9.763893
2023-12-01T13:09:08.664Z,9.763893
2023-12-01T13:10:08.733Z,9.763893
2023-12-01T13:11:08.589Z,9.763893
2023-12-01T13:12:08.620Z,9.763893
2023-12-01T13:13:08.618Z,9.763893
2023-12-01T13:14:08.578Z,9.763893
2023-12-01T13:15:09.572Z,9.763893
2023-12-01T13:16:08.570Z,9.763893
2023-12-01T13:17:08.559Z,9.763893
2023-12-01T13:18:08.660Z,9.763893
2023-12-01T13:19:08.562Z,9.763893
2023-12-01T13:20:08.588Z,9.763893
2023-12-01T13:21:08.524Z,9.763893
2023-12-01T13:22:08.480Z,9.763893
2023-12-01T13:23:08.475Z,9.763893
2023-12-01T13:24:08.875Z,9.763893
2023-12-01T13:25:08.492Z,9.763893
2023-12-01T13:26:08.464Z,9.763893
2023-12-01T13:27:08.558Z,9.763893
2023-12-01T13:28:08.407Z,9.763893
2023-12-01T13:29:08.412Z,9.763893
2023-12-01T13:30:08.521Z,9.763893
2023-12-01T13:31:08.450Z,9.763893
2023-12-01T13:32:08.405Z,9.763893
2023-12-01T13:33:08.434Z,9.763893
2023-12-01T13:34:08.332Z,9.763893
2023-12-01T13:35:08.382Z,9.763893
2023-12-01T13:36:08.472Z,9.763893
2023-12-01T13:37:08.362Z,9.763893
2023-12-01T13:38:08.347Z,9.763893
2023-12-01T13:39:08.409Z,9.763893
2023-12-01T13:40:08.412Z,9.763893
2023-12-01T13:41:08.327Z,9.763893
2023-12-01T13:42:08.407Z,9.763893
2023-12-01T13:43:08.247Z,9.763893
2023-12-01T13:44:08.239Z,9.763893
2023-12-01T13:45:10.233Z,9.763893
2023-12-01T13:46:09.168Z,9.763893
2023-12-01T13:47:08.207Z,9.763893
2023-12-01T13:48:08.290Z,9.763893
2023-12-01T13:49:08.231Z,9.763893
2023-12-01T13:50:08.169Z,9.763893
2023-12-01T13:51:08.266Z,9.763893
2023-12-01T13:52:08.166Z,9.763893
2023-12-01T13:53:08.122Z,9.763893
2023-12-01T13:54:08.189Z,9.763893
2023-12-01T13:55:08.308Z,9.763893
2023-12-01T13:57:10.252Z,9.763893
2023-12-01T13:57:11.965Z,9.763893
2023-12-01T13:58:14.424Z,9.763893
2023-12-01T13:59:38.211Z,9.763893
2023-12-01T14:00:12.897Z,9.763893
2023-12-01T14:01:11.812Z,9.763893
2023-12-01T14:02:11.925Z,9.763893
2023-12-01T14:03:20.128Z,9.763893
2023-12-01T14:04:13.916Z,9.763893
2023-12-01T14:05:11.735Z,9.763893
2023-12-01T14:06:11.922Z,9.763893
2023-12-01T14:07:11.707Z,9.763893
2023-12-01T14:08:11.738Z,9.763893
2023-12-01T14:09:11.722Z,9.763893
2023-12-01T14:10:11.706Z,9.763893
2023-12-01T14:11:11.706Z,9.763893
2023-12-01T14:12:11.674Z,9.763893
2023-12-01T14:13:11.673Z,9.763893
2023-12-01T14:14:11.648Z,9.763893
2023-12-01T14:15:11.853Z,9.763893
2023-12-01T14:16:11.654Z,9.763893
2023-12-01T14:17:11.598Z,9.763893
2023-12-01T14:18:11.659Z,9.763893
2023-12-01T14:19:11.644Z,9.763893
2023-12-01T14:20:11.605Z,9.763893
2023-12-01T14:21:11.602Z,9.763893
2023-12-01T14:22:11.574Z,9.763893
2023-12-01T14:23:11.546Z,9.763893
2023-12-01T14:24:11.591Z,9.763893
2023-12-01T14:25:11.523Z,9.763893
2023-12-01T14:26:11.513Z,9.763893
2023-12-01T14:27:11.550Z,9.763893
2023-12-01T14:28:11.513Z,9.763893
2023-12-01T14:29:11.465Z,9.763893
2023-12-01T14:30:11.505Z,9.763893
2023-12-01T14:31:11.538Z,9.763893
2023-12-01T14:32:17.929Z,9.763893
2023-12-01T14:33:13.534Z,9.763893
2023-12-01T14:34:11.628Z,9.763893
2023-12-01T14:35:11.486Z,9.763893
2023-12-01T14:36:11.425Z,9.763893
2023-12-01T14:37:11.440Z,9.763893
2023-12-01T14:38:11.510Z,9.763893
2023-12-01T14:39:11.405Z,9.763893
2023-12-01T14:40:11.380Z,9.763893
2023-12-01T14:41:11.426Z,9.763893
2023-12-01T14:42:11.466Z,9.763893
2023-12-01T14:43:11.343Z,9.763893
2023-12-01T14:44:11.359Z,9.763893
2023-12-01T14:45:11.444Z,9.763893
2023-12-01T14:46:11.363Z,9.763893
2023-12-01T14:47:11.331Z,9.763893
2023-12-01T14:48:11.365Z,9.763893
2023-12-01T14:49:11.286Z,9.763893
2023-12-01T14:50:11.300Z,9.763893
2023-12-01T14:51:11.412Z,9.763893
2023-12-01T14:52:11.275Z,9.763893
2023-12-01T14:53:11.253Z,9.763893
2023-12-01T14:54:11.865Z,9.763893
2023-12-01T14:55:11.222Z,9.763893
2023-12-01T14:56:11.223Z,9.763893
2023-12-01T14:57:11.303Z,9.763893
2023-12-01T14:58:11.182Z,9.763893
2023-12-01T14:59:11.184Z,9.763893
2023-12-01T15:00:11.212Z,9.763893
2023-12-01T15:01:11.202Z,9.763893
2023-12-01T15:02:11.263Z,9.763893
2023-12-01T15:03:11.219Z,9.763893
2023-12-01T15:04:11.176Z,9.763893
2023-12-01T15:05:11.146Z,9.763893
2023-12-01T15:06:11.134Z,9.763893
2023-12-01T15:07:11.108Z,9.763893
2023-12-01T15:08:11.105Z,9.763893
2023-12-01T15:09:11.100Z,9.763893
2023-12-01T15:10:11.076Z,9.763893
2023-12-01T15:11:11.063Z,9.763893
2023-12-01T15:12:11.047Z,9.763893
2023-12-01T15:13:11.039Z,9.763893
2023-12-01T15:14:10.987Z,9.763893
2023-12-01T15:15:11.145Z,9.763893
2023-12-01T15:16:10.994Z,9.763893
2023-12-01T15:17:10.980Z,9.763893
2023-12-01T15:18:11.107Z,9.763893
2023-12-01T15:19:10.965Z,9.763893
2023-12-01T15:20:10.933Z,9.763893
2023-12-01T15:21:11.016Z,9.763893
2023-12-01T15:22:10.932Z,9.763893
2023-12-01T15:23:10.971Z,9.763893
2023-12-01T15:24:10.978Z,9.763893
2023-12-01T15:25:10.893Z,9.763893
2023-12-01T15:26:10.894Z,9.763893
2023-12-01T15:27:10.906Z,9.763893
2023-12-01T15:28:10.889Z,9.763893
2023-12-01T15:29:10.841Z,9.763893
2023-12-01T15:30:10.855Z,9.763893
2023-12-01T15:31:10.814Z,9.763893
2023-12-01T15:32:10.780Z,9.763893
2023-12-01T15:33:10.904Z,9.763893
2023-12-01T15:34:10.821Z,9.763893
2023-12-01T15:35:10.836Z,9.763893
2023-12-01T15:36:10.832Z,9.763893
2023-12-01T15:37:10.773Z,9.763893
2023-12-01T15:38:10.817Z,9.763893
2023-12-01T15:39:10.836Z,9.763893
2023-12-01T15:40:10.804Z,9.763893
2023-12-01T15:41:10.722Z,9.763893
2023-12-01T15:42:10.787Z,9.763893
2023-12-01T15:43:10.734Z,9.763893
2023-12-01T15:44:10.671Z,9.763893
2023-12-01T15:45:10.814Z,9.763893
2023-12-01T15:46:10.810Z,9.763893
2023-12-01T15:47:10.691Z,9.763893
2023-12-01T15:48:10.740Z,9.763893
2023-12-01T15:49:10.678Z,9.763893
2023-12-01T15:50:10.644Z,9.763893
2023-12-01T15:51:10.682Z,9.763893
2023-12-01T15:52:10.664Z,9.763893
2023-12-01T15:53:10.622Z,9.763893
2023-12-01T15:54:10.611Z,9.763893
2023-12-01T15:55:10.650Z,9.763893
2023-12-01T15:56:10.628Z,9.763893
2023-12-01T15:57:10.621Z,9.763893
2023-12-01T15:58:10.565Z,9.763893
2023-12-01T15:59:10.566Z,9.763893
2023-12-01T16:00:10.552Z,9.763893
2023-12-01T16:01:10.566Z,9.763893
2023-12-01T16:02:10.597Z,9.763893
2023-12-01T16:03:10.651Z,9.763893
2023-12-01T16:04:10.655Z,9.763893
2023-12-01T16:05:10.474Z,9.763893
2023-12-01T16:06:10.580Z,9.763893
2023-12-01T16:07:10.465Z,9.763893
2023-12-01T16:08:10.453Z,9.763893
2023-12-01T16:09:10.429Z,9.763893
2023-12-01T16:10:10.471Z,9.763893
2023-12-01T16:11:10.440Z,9.763893
2023-12-01T16:12:10.450Z,9.763893
2023-12-01T16:13:10.381Z,9.763893
2023-12-01T16:14:10.415Z,9.763893
2023-12-01T16:15:15.910Z,9.763893
2023-12-01T16:16:12.384Z,9.763893
2023-12-01T16:17:13.619Z,9.763893
2023-12-01T16:18:12.488Z,9.763893
2023-12-01T16:19:10.405Z,9.763893
2023-12-01T16:20:10.451Z,9.763893
2023-12-01T16:21:10.437Z,9.763893
2023-12-01T16:22:10.302Z,9.763893
2023-12-01T16:23:10.629Z,9.763893
2023-12-01T16:24:10.318Z,9.763893
2023-12-01T16:25:10.297Z,9.763893
2023-12-01T16:26:10.266Z,9.763893
2023-12-01T16:27:10.301Z,9.763893
2023-12-01T16:28:10.228Z,9.763893
2023-12-01T16:29:10.246Z,9.763893
2023-12-01T16:30:10.260Z,9.763893
2023-12-01T16:31:10.304Z,9.763893
2023-12-01T16:32:10.197Z,9.763893
2023-12-01T16:33:10.325Z,9.763893
2023-12-01T16:34:10.262Z,9.763893
2023-12-01T16:35:10.551Z,9.763893
2023-12-01T16:36:30.428Z,9.763893
2023-12-01T16:37:11.167Z,9.763893
2023-12-01T16:38:10.210Z,9.763893
2023-12-01T16:39:10.212Z,9.763893
2023-12-01T16:40:10.212Z,9.763893
2023-12-01T16:41:10.116Z,9.763893
2023-12-01T16:42:10.117Z,9.763893
2023-12-01T16:43:10.096Z,9.763893
2023-12-01T16:44:10.088Z,9.763893
2023-12-01T16:45:10.101Z,9.763893
2023-12-01T16:46:10.069Z,9.763893
2023-12-01T16:47:10.060Z,9.763893
2023-12-01T16:48:10.259Z,9.763893
2023-12-01T16:49:10.233Z,9.763893
2023-12-01T16:50:10.017Z,9.763893
2023-12-01T16:51:10.020Z,9.763893
2023-12-01T16:52:10.010Z,9.763893
2023-12-01T16:53:10.030Z,9.763893
2023-12-01T16:54:10.032Z,9.763893
2023-12-01T16:55:09.979Z,9.763893
2023-12-01T16:56:09.965Z,9.763893
2023-12-01T16:57:09.976Z,9.763893
2023-12-01T16:58:16.809Z,9.763893
2023-12-01T16:59:11.948Z,9.763893
2023-12-01T17:00:10.018Z,9.763893
2023-12-01T17:01:09.921Z,9.763893
2023-12-01T17:02:09.985Z,9.763893
2023-12-01T17:03:10.024Z,9.763893
2023-12-01T17:04:09.958Z,9.763893
2023-12-01T17:05:09.892Z,9.763893
2023-12-01T17:06:09.890Z,9.763893
2023-12-01T17:07:09.899Z,9.763893
2023-12-01T17:08:09.826Z,9.763893
2023-12-01T17:09:09.841Z,9.763893
2023-12-01T17:10:09.838Z,9.763893
2023-12-01T17:11:09.792Z,9.763893
2023-12-01T17:12:09.859Z,9.763893
2023-12-01T17:13:09.907Z,9.763893
2023-12-01T17:14:09.810Z,9.763893
2023-12-01T17:15:09.868Z,9.763893
2023-12-01T17:16:09.774Z,9.763893
2023-12-01T17:17:09.764Z,9.763893
2023-12-01T17:18:09.846Z,9.763893
2023-12-01T17:19:09.737Z,9.763893
2023-12-01T17:20:09.851Z,9.763893
2023-12-01T17:21:09.733Z,9.763893
2023-12-01T17:22:09.706Z,9.763893
2023-12-01T17:23:09.717Z,9.763893
2023-12-01T17:24:09.674Z,9.763893
2023-12-01T17:25:09.668Z,9.763893
2023-12-01T17:26:09.694Z,9.763893
2023-12-01T17:27:09.674Z,9.763893